Latest Weather Observations for Coldstream

IDV60801

Issued at 11:02 pm EST Friday 22 May 2015 (issued every 30 minutes, with the page automatically refreshed every 10 minutes)

About weather observations | Map of weather stations | Latest weather observations for VIC | Other Formats
Station Details ID: 086383 Name: COLDSTREAM Lat: -37.72 Lon: 145.41 Height: 83.0 m
Data from the previous 72 hours. | See also: Recent months at Coldstream
Date/Time
EST
Temp
°C
App
Temp
°C
Dew
Point
Rel
Hum
%
Delta-T
°C
Wind Press
QNH
hPa
Press
MSL
hPa
Rain
since 9 am
mm
Dir
 
Spd
km/h
Gust
km/h
Spd
kts
Gust
kts
22/11:00pm 9.8 9.0 6.5 80 1.5 CALM 0 0 0 0 1031.9 1032.0 0.0
22/10:30pm 10.1 8.4 6.1 76 1.8 S 4 7 2 4 1032.0 1032.1 0.0
22/10:00pm 10.3 9.3 5.7 73 2.1 CALM 0 6 0 3 1032.0 1032.1 0.0
22/09:30pm 10.5 8.2 5.5 71 2.3 S 7 13 4 7 1031.9 1032.0 0.0
22/09:00pm 10.6 7.7 4.9 68 2.6 S 9 17 5 9 1031.9 1032.0 0.0
22/08:30pm 10.6 8.2 5.4 70 2.4 SSE 7 13 4 7 1031.7 1031.8 0.0
22/08:00pm 10.8 7.3 5.3 69 2.5 S 13 19 7 10 1031.5 1031.6 0.0
22/07:30pm 10.6 7.5 5.4 70 2.4 S 11 24 6 13 1031.3 1031.4 0.0
22/07:00pm 10.3 8.1 6.1 75 1.9 S 7 13 4 7 1031.0 1031.1 0.0
22/06:30pm 10.5 8.0 6.6 77 1.8 SSW 9 15 5 8 1030.7 1030.8 0.0
22/06:00pm 10.6 8.2 6.9 78 1.7 S 9 13 5 7 1030.4 1030.5 0.0
22/05:30pm 10.6 7.7 6.4 75 2.0 S 11 17 6 9 1030.2 1030.3 0.0
22/05:00pm 11.4 8.5 6.3 71 2.4 S 11 20 6 11 1030.1 1030.2 0.0
22/04:30pm 11.9 7.9 6.6 70 2.5 S 17 26 9 14 1030.0 1030.1 0.0
22/04:00pm 12.7 9.2 7.4 70 2.6 S 15 24 8 13 1029.8 1029.9 0.0
22/03:30pm 12.6 8.8 7.5 71 2.5 S 17 24 9 13 1029.7 1029.8 0.0
22/03:00pm 12.5 9.3 8.4 76 2.0 S 15 24 8 13 1029.4 1029.5 0.0
22/02:30pm 12.7 8.9 7.6 71 2.5 S 17 24 9 13 1029.1 1029.2 0.0
22/02:00pm 13.3 9.4 6.9 65 3.1 S 17 26 9 14 1028.8 1028.9 0.0
22/01:30pm 13.7 10.3 7.5 66 3.1 S 15 20 8 11 1028.8 1028.9 0.0
22/01:00pm 14.2 11.2 7.5 64 3.3 S 13 22 7 12 1028.7 1028.8 0.0
22/12:30pm 13.7 10.0 6.3 61 3.6 SSE 15 20 8 11 1028.8 1028.9 0.0
22/12:00pm 14.0 10.2 5.6 57 4.0 SSE 15 26 8 14 1029.0 1029.1 0.0
22/11:30am 14.4 11.5 6.3 58 3.9 SE 11 17 6 9 1029.2 1029.3 0.0
22/11:00am 13.7 9.9 5.8 59 3.7 SSE 15 26 8 14 1029.4 1029.5 0.0
22/10:30am 13.9 9.8 6.3 60 3.7 SE 17 28 9 15 1029.5 1029.6 0.0
22/10:00am 13.2 9.7 7.4 68 2.8 SE 15 26 8 14 1029.3 1029.4 0.0
22/09:30am 11.9 8.4 7.4 74 2.2 SE 15 22 8 12 1029.2 1029.3 0.0
22/09:00am 11.3 9.5 8.0 80 1.6 SSE 7 13 4 7 1029.4 1029.5 0.2
22/08:30am 9.7 7.3 7.1 84 1.2 ESE 9 15 5 8 1029.1 1029.2 0.2
22/08:00am 9.6 8.0 8.0 90 0.8 S 6 9 3 5 1028.9 1029.0 0.2
22/07:30am 8.2 6.5 7.6 96 0.3 S 6 7 3 4 1028.6 1028.7 0.2
22/07:00am 7.8 7.1 7.1 95 0.3 CALM 0 0 0 0 1028.2 1028.3 0.2
22/06:30am 7.3 5.1 6.4 94 0.4 SE 7 7 4 4 1027.7 1027.8 0.2
22/06:00am 7.3 5.3 6.1 92 0.5 SSE 6 7 3 4 1027.4 1027.5 0.2
22/05:30am 8.5 6.5 7.3 92 0.6 S 7 11 4 6 1027.1 1027.1 0.2
22/05:00am 8.9 6.7 7.8 93 0.5 S 9 11 5 6 1026.7 1026.7 0.2
22/04:30am 9.1 7.2 7.7 91 0.7 S 7 9 4 5 1026.4 1026.5 0.2
22/04:00am 9.5 7.9 8.1 91 0.7 S 6 11 3 6 1026.3 1026.4 0.2
22/03:30am 10.3 8.3 8.6 89 0.8 S 9 17 5 9 1026.2 1026.3 0.2
22/03:00am 10.7 8.3 8.8 88 0.9 S 11 17 6 9 1026.1 1026.2 0.2
22/02:30am 10.8 8.5 8.9 88 0.9 S 11 19 6 10 1026.0 1026.1 0.2
22/02:00am 10.9 7.8 8.8 87 1.0 S 15 22 8 12 1025.8 1025.9 0.2
22/01:30am 10.4 8.8 8.8 90 0.8 S 7 15 4 8 1025.6 1025.7 0.2
22/01:00am 11.0 9.7 9.1 88 0.9 SSE 6 13 3 7 1025.6 1025.7 0.2
22/12:30am 10.9 10.4 9.3 90 0.8 SSE 2 9 1 5 1025.6 1025.7 0.2
22/12:00am 10.6 8.6 8.7 88 0.9 SE 9 15 5 8 1025.6 1025.7 0.2
 
Date/Time
EST
Temp
°C
App
Temp
°C
Dew
Point
Rel
Hum
%
Delta-T
°C
Wind Press
QNH
hPa
Press
MSL
hPa
Rain
since 9 am
mm
Dir
 
Spd
km/h
Gust
km/h
Spd
kts
Gust
kts
21/11:30pm 11.0 7.2 8.9 87 1.0 SSE 19 28 10 15 1025.5 1025.6 0.2
21/11:00pm 10.7 6.8 8.6 87 1.0 SSE 19 24 10 13 1025.5 1025.6 0.2
21/10:30pm 10.5 7.8 9.1 91 0.7 SSE 13 19 7 10 1025.5 1025.6 0.2
21/10:00pm 10.7 9.3 9.5 92 0.6 SSE 7 11 4 6 1025.5 1025.6 0.2
21/09:30pm 10.8 9.0 9.4 91 0.7 SSE 9 11 5 6 1025.4 1025.5 0.2
21/09:00pm 10.5 9.0 9.1 91 0.7 SSE 7 11 4 6 1025.3 1025.4 0.2
21/08:30pm 10.5 8.7 9.4 93 0.6 SSE 9 13 5 7 1025.2 1025.3 0.2
21/08:00pm 10.4 10.3 9.6 95 0.4 CALM 0 0 0 0 1025.0 1025.1 0.2
21/07:30pm 10.3 10.2 9.4 94 0.5 CALM 0 0 0 0 1024.7 1024.8 0.2
21/07:00pm 10.4 10.3 9.3 93 0.5 CALM 0 0 0 0 1024.6 1024.7 0.2
21/06:30pm 10.8 10.7 9.4 91 0.7 CALM 0 0 0 0 1024.4 1024.5 0.2
21/06:00pm 11.1 11.1 9.7 91 0.7 CALM 0 0 0 0 1024.2 1024.3 0.2
21/05:30pm 11.4 11.4 9.8 90 0.8 CALM 0 0 0 0 1023.9 1024.0 0.2
21/05:00pm 11.6 11.6 9.7 88 1.0 CALM 0 0 0 0 1023.7 1023.8 0.2
21/04:30pm 11.7 11.6 9.6 87 1.1 CALM 0 0 0 0 1023.5 1023.6 0.2
21/04:00pm 11.8 11.3 9.5 86 1.2 NNE 2 6 1 3 1023.4 1023.5 0.2
21/03:30pm 11.9 11.8 9.3 84 1.3 CALM 0 6 0 3 1023.2 1023.3 0.2
21/03:00pm 11.8 11.6 9.2 84 1.3 CALM 0 0 0 0 1023.0 1023.1 0.2
21/02:30pm 11.8 11.6 9.2 84 1.3 CALM 0 0 0 0 1022.9 1023.0 0.2
21/02:00pm 11.7 11.5 9.1 84 1.3 CALM 0 0 0 0 1022.9 1023.0 0.2
21/01:30pm 11.5 11.3 9.1 85 1.2 CALM 0 0 0 0 1023.0 1023.1 0.2
21/01:00pm 11.4 11.1 8.8 84 1.3 CALM 0 0 0 0 1023.2 1023.3 0.2
21/12:30pm 11.4 10.5 9.3 87 1.1 N 4 7 2 4 1023.5 1023.6 0.2
21/12:00pm 11.4 10.1 9.1 86 1.1 WNW 6 7 3 4 1023.6 1023.7 0.2
21/11:30am 11.5 10.7 9.8 89 0.9 N 4 9 2 5 1023.9 1024.0 0.2
21/11:00am 10.7 9.5 9.5 92 0.6 NE 6 7 3 4 1024.1 1024.2 0.2
21/10:30am 10.1 9.8 8.5 90 0.8 CALM 0 0 0 0 1024.1 1024.2 0.0
21/10:00am 10.1 9.8 8.5 90 0.8 CALM 0 0 0 0 1023.9 1024.0 0.0
21/09:30am 10.0 9.7 8.8 92 0.6 CALM 0 0 0 0 1023.7 1023.8 0.0
21/09:00am 9.7 7.7 8.5 92 0.6 SSE 9 15 5 8 1023.5 1023.6 6.4
21/08:30am 9.7 9.5 9.1 96 0.3 CALM 0 6 0 3 1023.2 1023.3 6.4
21/08:00am 9.6 9.4 9.0 96 0.3 CALM 0 0 0 0 1022.8 1022.9 6.4
21/07:30am 9.4 8.8 8.8 96 0.3 SW 2 7 1 4 1022.4 1022.5 6.2
21/07:00am 9.5 7.9 8.7 95 0.4 WSW 7 9 4 5 1022.1 1022.2 6.2
21/06:30am 9.5 8.0 8.6 94 0.4 SW 6 9 3 5 1021.7 1021.8 6.2
21/06:00am 9.5 7.0 8.4 93 0.5 SW 11 19 6 10 1021.4 1021.5 6.2
21/05:30am 9.7 7.3 8.8 94 0.4 SW 11 15 6 8 1021.1 1021.2 6.2
21/05:00am 9.8 8.4 9.0 95 0.4 SW 6 9 3 5 1020.9 1021.0 6.2
21/04:30am 9.9 8.0 9.0 94 0.4 SW 9 13 5 7 1020.6 1020.7 6.2
21/04:00am 9.9 7.6 9.0 94 0.4 SW 11 15 6 8 1020.3 1020.4 6.2
21/03:30am 9.9 8.0 9.1 95 0.4 WSW 9 13 5 7 1020.3 1020.4 6.2
21/03:00am 10.1 8.8 9.3 95 0.4 SW 6 11 3 6 1020.1 1020.2 6.2
21/02:30am 10.2 8.4 9.3 94 0.4 SW 9 11 5 6 1020.0 1020.1 6.2
21/02:00am 10.3 7.0 9.5 95 0.4 WSW 17 24 9 13 1019.8 1019.9 6.2
21/01:30am 10.4 7.1 9.6 95 0.4 WSW 17 24 9 13 1019.5 1019.6 6.2
21/01:00am 10.4 7.1 9.6 95 0.4 SW 17 30 9 16 1019.2 1019.3 6.2
21/12:30am 10.7 7.0 10.1 96 0.3 SW 20 28 11 15 1019.1 1019.2 6.2
21/12:00am 11.1 8.1 10.5 96 0.3 WSW 17 28 9 15 1018.8 1018.9 6.0
 
Date/Time
EST
Temp
°C
App
Temp
°C
Dew
Point
Rel
Hum
%
Delta-T
°C
Wind Press
QNH
hPa
Press
MSL
hPa
Rain
since 9 am
mm
Dir
 
Spd
km/h
Gust
km/h
Spd
kts
Gust
kts
20/11:30pm 11.2 6.9 10.6 96 0.3 SW 24 39 13 21 1018.5 1018.6 5.8
20/11:00pm 11.4 7.5 10.8 96 0.3 WSW 22 33 12 18 1018.1 1018.2 5.6
20/10:30pm 11.8 8.4 11.3 97 0.3 WSW 20 32 11 17 1018.0 1018.1 5.4
20/10:00pm 12.1 8.9 11.8 98 0.2 WSW 20 33 11 18 1017.7 1017.8 5.2
20/09:30pm 12.2 10.0 12.0 99 0.1 W 15 20 8 11 1017.4 1017.5 5.0
20/09:00pm 11.8 10.2 11.5 98 0.2 NNW 11 17 6 9 1017.0 1017.0 3.8
20/08:30pm 11.7 10.1 11.4 98 0.2 N 11 19 6 10 1016.8 1016.8 3.2
20/08:00pm 11.7 10.0 11.1 96 0.3 NNW 11 15 6 8 1016.5 1016.5 2.4
20/07:30pm 12.1 10.0 11.0 93 0.6 NW 13 19 7 10 1016.3 1016.3 1.2
20/07:00pm 12.4 11.5 11.3 93 0.6 NNW 7 9 4 5 1015.8 1015.8 0.4
20/06:30pm 12.4 10.7 11.3 93 0.6 NNW 11 17 6 9 1015.2 1015.2 0.4
20/06:00pm 12.4 11.7 11.3 93 0.6 NNW 6 9 3 5 1014.8 1014.8 0.2
20/05:30pm 12.5 12.5 11.1 91 0.7 NNW 2 7 1 4 1014.3 1014.3 0.0
20/05:00pm 13.2 10.2 10.6 84 1.4 NW 17 26 9 14 1013.7 1013.8 0.0
20/04:30pm 14.9 11.9 9.1 68 3.0 N 15 22 8 12 1012.8 1012.9 0.0
20/04:00pm 15.6 12.8 8.4 62 3.7 N 13 24 7 13 1012.5 1012.6 0.0
20/03:30pm 15.8 11.6 7.6 58 4.1 NNW 19 26 10 14 1012.2 1012.3 0.0
20/03:00pm 16.3 12.0 7.8 57 4.3 N 20 33 11 18 1011.9 1012.0 0.0
20/02:30pm 16.7 12.3 7.4 54 4.7 NNW 20 35 11 19 1011.8 1011.9 0.0
20/02:00pm 16.8 12.6 7.4 54 4.7 NW 19 33 10 18 1011.5 1011.6 0.0
20/01:30pm 16.9 12.5 7.5 54 4.7 NW 20 35 11 19 1011.3 1011.4 0.0
20/01:00pm 16.1 11.9 7.6 57 4.3 NW 19 30 10 16 1011.3 1011.4 0.0
20/12:30pm 17.2 13.7 8.9 58 4.3 NW 17 26 9 14 1011.4 1011.5 0.0
20/12:00pm 17.6 13.4 8.2 54 4.8 NNW 20 37 11 20 1011.5 1011.6 0.0
20/11:30am 17.8 13.6 9.9 60 4.2 N 22 35 12 19 1011.6 1011.7 0.0
20/11:00am 17.4 12.9 10.1 62 3.9 NNW 24 37 13 20 1011.6 1011.7 0.0
20/10:30am 16.4 12.6 9.8 65 3.5 N 20 32 11 17 1011.3 1011.4 0.0
20/10:00am 15.9 12.3 10.7 71 2.8 N 20 32 11 17 1010.8 1010.9 0.0
20/09:30am 15.8 11.1 10.6 71 2.8 N 26 35 14 19 1010.6 1010.7 0.0
20/09:00am 15.8 12.4 11.2 74 2.5 N 20 35 11 19 1010.6 1010.7 0.4
20/08:30am 15.0 12.3 11.6 80 1.8 N 17 24 9 13 1010.2 1010.3 0.4
20/08:00am 14.1 10.8 11.6 85 1.3 N 20 30 11 16 1009.9 1010.0 0.4
20/07:30am 14.2 11.8 11.4 83 1.5 N 15 26 8 14 1009.8 1009.9 0.4
20/07:00am 14.8 12.5 11.8 82 1.6 N 15 20 8 11 1009.7 1009.8 0.4
20/06:30am 14.8 12.5 11.8 82 1.6 N 15 20 8 11 1009.5 1009.6 0.4
20/06:00am 14.8 12.5 11.9 83 1.6 N 15 24 8 13 1009.2 1009.3 0.4
20/05:30am 14.6 11.5 11.7 83 1.6 N 19 24 10 13 1008.7 1008.8 0.4
20/05:00am 14.2 11.1 11.5 84 1.5 N 19 28 10 15 1008.7 1008.8 0.4
20/04:30am 14.4 11.7 11.6 83 1.5 N 17 24 9 13 1008.6 1008.7 0.4
20/04:00am 14.4 11.6 11.4 82 1.6 N 17 28 9 15 1008.6 1008.7 0.4
20/03:30am 14.8 11.0 11.0 78 2.0 N 22 32 12 17 1008.7 1008.8 0.4
20/03:00am 15.1 12.8 10.3 73 2.5 N 13 19 7 10 1008.6 1008.7 0.4
20/02:30am 15.0 11.9 10.2 73 2.5 N 17 24 9 13 1008.7 1008.8 0.4
20/02:00am 15.4 11.8 10.4 72 2.6 NNE 20 33 11 18 1008.7 1008.8 0.4
20/01:30am 14.7 12.0 10.3 75 2.3 N 15 26 8 14 1008.9 1009.0 0.4
20/01:00am 14.5 11.8 10.3 76 2.2 N 15 24 8 13 1009.3 1009.4 0.4
20/12:30am 14.6 12.3 10.4 76 2.2 N 13 22 7 12 1009.6 1009.7 0.4
20/12:00am 14.4 11.7 10.2 76 2.2 N 15 30 8 16 1009.9 1010.0 0.4
 
Date/Time
EST
Temp
°C
App
Temp
°C
Dew
Point
Rel
Hum
%
Delta-T
°C
Wind Press
QNH
hPa
Press
MSL
hPa
Rain
since 9 am
mm
Dir
 
Spd
km/h
Gust
km/h
Spd
kts
Gust
kts
19/11:30pm 14.9 11.4 10.3 74 2.4 NNE 19 32 10 17 1010.0 1010.1 0.4

Other Formats:

Comma delimited format used in spreadsheet applications
http://www.bom.gov.au/fwo/IDV60801/IDV60801.94864.axf

JavaScript Object Notation format (JSON) in row-major order
http://www.bom.gov.au/fwo/IDV60801/IDV60801.94864.json